Time;durP1;ratioP1;P1;durP2;ratioP2;P2;SDS_P1;SDS_P2;PMS_P1;PMS_P2;Temp;Humidity;BMP_temperature;BMP_pressure;BME280_temperature;BME280_humidity;BME280_pressure;Samples;Min_cycle;Max_cycle;Signal;HPM_P1;HPM_P2
2023/03/27 00:00:15;;;;;;;2.47;0.65;;;;;;;;;;4994608;28;20058;-79
2023/03/27 00:02:41;;;;;;;1.30;0.52;;;;;;;;;;4994708;28;20112;-80
2023/03/27 00:05:09;;;;;;;1.42;0.80;;;;;;;;;;4995247;28;20053;-79
2023/03/27 00:07:35;;;;;;;1.17;0.70;;;;;;;;;;4994891;28;20253;-79
2023/03/27 00:10:04;;;;;;;2.42;0.60;;;;;;;;;;4994434;28;20046;-79
2023/03/27 00:12:31;;;;;;;2.13;0.77;;;;;;;;;;5003246;28;20081;-80
2023/03/27 00:14:57;;;;;;;3.85;0.88;;;;;;;;;;5008251;28;20046;-79
2023/03/27 00:17:24;;;;;;;1.00;0.60;;;;;;;;;;5001613;28;20081;-82
2023/03/27 00:19:53;;;;;;;1.50;0.50;;;;;;;;;;4995329;28;20536;-80
2023/03/27 00:22:20;;;;;;;3.17;0.80;;;;;;;;;;4995528;28;20058;-80
2023/03/27 00:24:46;;;;;;;2.00;0.60;;;;;;;;;;4996044;28;20042;-80
2023/03/27 00:27:14;;;;;;;2.17;0.70;;;;;;;;;;4995819;28;20070;-79
2023/03/27 00:29:41;;;;;;;1.35;0.55;;;;;;;;;;5002411;28;20101;-80
2023/03/27 00:32:08;;;;;;;2.40;0.80;;;;;;;;;;5006225;28;20505;-79
2023/03/27 00:34:34;;;;;;;1.77;0.80;;;;;;;;;;5004916;28;20102;-79
2023/03/27 00:37:03;;;;;;;3.30;0.80;;;;;;;;;;4996641;28;20050;-79
2023/03/27 00:39:30;;;;;;;1.80;0.70;;;;;;;;;;4995117;28;20046;-79
2023/03/27 00:41:57;;;;;;;1.75;0.77;;;;;;;;;;4999553;28;20103;-80
2023/03/27 00:44:29;;;;;;;2.90;0.75;;;;;;;;;;4998785;28;20046;-80
2023/03/27 00:46:57;;;;;;;1.85;0.70;;;;;;;;;;4999668;28;20057;-80
2023/03/27 00:49:26;;;;;;;3.20;0.95;;;;;;;;;;4999298;28;20069;-79
2023/03/27 00:51:56;;;;;;;2.33;0.60;;;;;;;;;;4999065;28;20141;-80
2023/03/27 00:54:28;;;;;;;1.13;0.50;;;;;;;;;;5000022;28;20569;-80
2023/03/27 00:56:58;;;;;;;2.33;0.85;;;;;;;;;;5000753;28;20046;-80
2023/03/27 00:59:30;;;;;;;3.65;0.98;;;;;;;;;;4998743;28;20082;-80
2023/03/27 01:01:58;;;;;;;2.10;0.80;;;;;;;;;;4999770;28;20050;-79
2023/03/27 01:04:26;;;;;;;1.02;0.60;;;;;;;;;;4998906;28;20489;-79
2023/03/27 01:06:55;;;;;;;2.00;1.00;;;;;;;;;;4999052;28;20112;-79
2023/03/27 01:09:22;;;;;;;1.67;0.90;;;;;;;;;;4998030;28;20129;-79
2023/03/27 01:12:01;;;;;;;2.15;0.85;;;;;;;;;;4999021;28;20050;-79
2023/03/27 01:14:37;;;;;;;1.58;0.60;;;;;;;;;;4998528;28;20062;-80
2023/03/27 01:17:17;;;;;;;3.28;0.88;;;;;;;;;;4999866;28;20050;-79
2023/03/27 01:20:10;;;;;;;1.30;0.60;;;;;;;;;;5001441;28;20050;-79
2023/03/27 01:23:08;;;;;;;1.23;0.70;;;;;;;;;;5016267;28;20114;-79
2023/03/27 01:26:16;;;;;;;2.42;1.00;;;;;;;;;;5007215;28;20082;-79
2023/03/27 01:28:53;;;;;;;1.58;0.65;;;;;;;;;;4995498;28;20050;-80
2023/03/27 01:31:39;;;;;;;2.58;0.90;;;;;;;;;;5000293;28;20061;-80
2023/03/27 01:34:45;;;;;;;2.25;0.70;;;;;;;;;;5000666;28;20132;-79
2023/03/27 01:37:36;;;;;;;2.58;0.80;;;;;;;;;;5001096;28;20050;-80
2023/03/27 01:40:07;;;;;;;2.33;0.82;;;;;;;;;;5000733;28;20042;-79
2023/03/27 01:42:36;;;;;;;;;;;;;;;;;;4999647;28;20056;-80
2023/03/27 01:45:08;;;;;;;1.27;0.63;;;;;;;;;;4998451;28;19926;-79
2023/03/27 01:47:44;;;;;;;1.52;0.75;;;;;;;;;;4998267;28;20464;-79
2023/03/27 01:50:19;;;;;;;2.05;0.77;;;;;;;;;;4998360;28;20042;-80
2023/03/27 01:52:51;;;;;;;1.30;0.75;;;;;;;;;;4997565;28;20722;-78
2023/03/27 01:55:25;;;;;;;1.88;0.90;;;;;;;;;;5008172;28;20050;-80
2023/03/27 01:57:59;;;;;;;1.45;0.85;;;;;;;;;;5011618;28;20047;-79
2023/03/27 02:00:28;;;;;;;4.22;1.17;;;;;;;;;;5010887;28;20046;-80
2023/03/27 02:02:58;;;;;;;2.15;0.88;;;;;;;;;;5009957;28;20054;-80
2023/03/27 02:05:30;;;;;;;2.03;0.95;;;;;;;;;;5010026;28;20053;-80
2023/03/27 02:08:04;;;;;;;1.67;0.93;;;;;;;;;;5009982;28;20062;-80
2023/03/27 02:10:37;;;;;;;2.72;1.00;;;;;;;;;;5010270;28;20072;-80
2023/03/27 02:13:07;;;;;;;2.53;0.98;;;;;;;;;;4992078;28;20081;-80
2023/03/27 02:15:37;;;;;;;2.15;0.93;;;;;;;;;;4988417;28;20047;-80
2023/03/27 02:18:10;;;;;;;3.88;1.25;;;;;;;;;;4981595;28;20046;-79
2023/03/27 02:20:40;;;;;;;2.15;1.08;;;;;;;;;;4985730;28;20560;-79
2023/03/27 02:23:07;;;;;;;2.67;1.00;;;;;;;;;;4998196;28;20046;-80
2023/03/27 02:25:37;;;;;;;2.47;1.10;;;;;;;;;;4998469;28;20046;-79
2023/03/27 02:28:20;;;;;;;2.35;1.02;;;;;;;;;;4996992;28;20449;-79
2023/03/27 02:30:57;;;;;;;2.35;1.00;;;;;;;;;;4996680;28;20113;-80
2023/03/27 02:33:34;;;;;;;1.65;0.90;;;;;;;;;;4997466;28;20046;-79
2023/03/27 02:36:09;;;;;;;2.88;1.08;;;;;;;;;;4996841;28;20129;-80
2023/03/27 02:38:42;;;;;;;2.05;1.17;;;;;;;;;;4997924;28;20057;-80
2023/03/27 02:41:20;;;;;;;2.28;1.10;;;;;;;;;;4997155;28;20057;-80
2023/03/27 02:43:56;;;;;;;3.30;1.38;;;;;;;;;;4996868;28;20057;-79
2023/03/27 02:46:28;;;;;;;3.03;1.10;;;;;;;;;;4997005;28;20046;-81
2023/03/27 02:48:57;;;;;;;2.70;1.17;;;;;;;;;;5008830;28;20046;-80
2023/03/27 02:51:27;;;;;;;3.33;1.30;;;;;;;;;;5005579;28;20081;-81
2023/03/27 02:53:58;;;;;;;2.63;1.15;;;;;;;;;;5005380;28;20054;-80
2023/03/27 02:56:27;;;;;;;;;;;;;;;;;;5005235;28;20077;-81
2023/03/27 02:58:58;;;;;;;2.38;1.30;;;;;;;;;;5010014;23;20038;-78
2023/03/27 03:01:27;;;;;;;2.63;1.40;;;;;;;;;;4994327;28;20133;-78
2023/03/27 03:03:58;;;;;;;4.50;1.33;;;;;;;;;;4993932;28;20046;-79
2023/03/27 03:06:28;;;;;;;3.10;1.30;;;;;;;;;;4995100;28;20046;-79
2023/03/27 03:09:00;;;;;;;2.95;1.40;;;;;;;;;;4995589;28;20046;-80
2023/03/27 03:11:29;;;;;;;1.92;1.17;;;;;;;;;;4995525;28;20452;-80
2023/03/27 03:13:57;;;;;;;2.13;1.10;;;;;;;;;;4994864;28;20473;-79
2023/03/27 03:16:24;;;;;;;2.55;1.70;;;;;;;;;;4995306;28;20074;-80
2023/03/27 03:18:50;;;;;;;2.40;1.20;;;;;;;;;;4995162;28;20049;-80
2023/03/27 03:21:17;;;;;;;2.65;1.20;;;;;;;;;;4995113;28;20097;-79
2023/03/27 03:23:44;;;;;;;3.25;1.20;;;;;;;;;;4995206;28;20126;-80
2023/03/27 03:26:11;;;;;;;2.65;1.25;;;;;;;;;;4996602;28;20085;-80
2023/03/27 03:28:39;;;;;;;3.28;1.50;;;;;;;;;;4996325;28;20042;-78
2023/03/27 03:31:09;;;;;;;3.50;1.50;;;;;;;;;;4996354;28;20058;-78
2023/03/27 03:33:36;;;;;;;2.33;1.20;;;;;;;;;;4995290;28;20129;-78
2023/03/27 03:36:04;;;;;;;3.50;1.50;;;;;;;;;;4995816;28;20074;-78
2023/03/27 03:38:34;;;;;;;4.95;1.40;;;;;;;;;;4997131;28;20050;-79
2023/03/27 03:41:01;;;;;;;2.60;1.25;;;;;;;;;;4998605;28;20065;-79
2023/03/27 03:43:29;;;;;;;2.47;1.40;;;;;;;;;;4999303;28;20125;-78
2023/03/27 03:45:58;;;;;;;3.53;1.50;;;;;;;;;;4998990;28;20077;-78
2023/03/27 03:48:25;;;;;;;4.97;1.75;;;;;;;;;;5004016;28;20046;-77
2023/03/27 03:50:52;;;;;;;3.22;1.50;;;;;;;;;;5004608;28;20497;-80
2023/03/27 03:53:20;;;;;;;3.85;1.75;;;;;;;;;;4981410;28;20525;-77
2023/03/27 03:55:50;;;;;;;3.92;1.70;;;;;;;;;;4996874;28;20150;-77
2023/03/27 03:58:17;;;;;;;3.72;1.60;;;;;;;;;;4994422;28;20050;-77
2023/03/27 04:00:45;;;;;;;3.45;1.70;;;;;;;;;;4993327;28;20054;-78
2023/03/27 04:03:14;;;;;;;3.95;1.50;;;;;;;;;;4992990;28;20049;-77
2023/03/27 04:05:41;;;;;;;2.58;1.40;;;;;;;;;;4992998;28;20046;-77
2023/03/27 04:08:08;;;;;;;2.50;1.30;;;;;;;;;;4993021;28;20112;-78
2023/03/27 04:10:37;;;;;;;3.50;1.17;;;;;;;;;;4993156;28;20087;-78
2023/03/27 04:13:05;;;;;;;2.50;1.10;;;;;;;;;;4994132;28;20046;-78
2023/03/27 04:15:31;;;;;;;2.83;1.17;;;;;;;;;;4994363;28;20050;-78
2023/03/27 04:17:58;;;;;;;3.30;1.45;;;;;;;;;;4995143;28;20073;-77
2023/03/27 04:20:26;;;;;;;2.55;1.40;;;;;;;;;;4999548;28;20074;-77
2023/03/27 04:22:54;;;;;;;2.63;1.20;;;;;;;;;;5003637;28;20555;-77
2023/03/27 04:25:22;;;;;;;3.17;1.42;;;;;;;;;;4997094;28;20493;-77
2023/03/27 04:27:51;;;;;;;3.22;1.50;;;;;;;;;;4996219;28;20460;-78
2023/03/27 04:30:22;;;;;;;2.78;1.50;;;;;;;;;;4996168;28;20051;-78
2023/03/27 04:32:49;;;;;;;;;;;;;;;;;;4996313;28;20066;-78
2023/03/27 04:35:16;;;;;;;4.95;1.88;;;;;;;;;;4996291;28;19922;-78
2023/03/27 04:37:44;;;;;;;4.97;2.22;;;;;;;;;;4993962;28;20122;-77
2023/03/27 04:40:14;;;;;;;5.18;2.08;;;;;;;;;;4995083;28;20093;-78
2023/03/27 04:42:42;;;;;;;3.08;1.58;;;;;;;;;;4994340;28;20112;-77
2023/03/27 04:45:12;;;;;;;3.28;1.58;;;;;;;;;;4993863;28;20052;-77
2023/03/27 04:47:39;;;;;;;3.28;1.50;;;;;;;;;;4995455;28;20097;-78
2023/03/27 04:50:07;;;;;;;3.97;1.60;;;;;;;;;;4996353;28;20050;-78
2023/03/27 04:52:34;;;;;;;2.80;1.27;;;;;;;;;;4998715;28;20081;-78
2023/03/27 04:55:03;;;;;;;2.05;1.08;;;;;;;;;;4999473;28;20110;-78
2023/03/27 04:57:30;;;;;;;1.60;1.00;;;;;;;;;;4994462;28;20046;-76
2023/03/27 04:59:57;;;;;;;2.05;1.10;;;;;;;;;;4995058;28;20042;-76
2023/03/27 05:02:25;;;;;;;2.53;1.10;;;;;;;;;;4994641;28;20125;-77
2023/03/27 05:04:57;;;;;;;1.40;0.80;;;;;;;;;;4995861;28;20394;-78
2023/03/27 05:07:25;;;;;;;2.35;0.90;;;;;;;;;;4997943;28;20047;-78
2023/03/27 05:09:52;;;;;;;2.33;1.15;;;;;;;;;;4998175;28;20129;-78
2023/03/27 05:12:21;;;;;;;2.83;1.17;;;;;;;;;;4998864;28;20050;-79
2023/03/27 05:14:48;;;;;;;1.70;0.80;;;;;;;;;;4998202;28;20069;-79
2023/03/27 05:17:15;;;;;;;1.88;1.00;;;;;;;;;;4998835;28;20061;-79
2023/03/27 05:19:43;;;;;;;1.85;1.00;;;;;;;;;;4997747;28;20080;-79
2023/03/27 05:22:10;;;;;;;1.30;0.90;;;;;;;;;;4997148;28;20513;-78
2023/03/27 05:24:37;;;;;;;1.80;0.80;;;;;;;;;;4997421;28;20461;-79
2023/03/27 05:27:04;;;;;;;1.95;1.00;;;;;;;;;;4997028;28;20054;-77
2023/03/27 05:29:39;;;;;;;1.65;0.90;;;;;;;;;;4996918;28;20050;-78
2023/03/27 05:32:06;;;;;;;2.42;1.13;;;;;;;;;;4998302;28;20050;-78
2023/03/27 05:34:33;;;;;;;1.58;0.75;;;;;;;;;;4996654;28;20074;-78
2023/03/27 05:37:04;;;;;;;1.73;0.90;;;;;;;;;;4996977;28;20050;-77
2023/03/27 05:39:31;;;;;;;;;;;;;;;;;;5000364;28;20054;-79
2023/03/27 05:41:57;;;;;;;1.67;0.90;;;;;;;;;;5001408;28;20411;-77
2023/03/27 05:44:26;;;;;;;3.33;1.40;;;;;;;;;;4996781;28;20129;-78
2023/03/27 05:46:54;;;;;;;3.05;1.20;;;;;;;;;;4996615;28;20189;-78
2023/03/27 05:49:21;;;;;;;2.83;1.10;;;;;;;;;;4996234;28;20133;-77
2023/03/27 05:51:48;;;;;;;1.77;0.95;;;;;;;;;;4996317;28;20074;-77
2023/03/27 05:54:14;;;;;;;3.25;1.00;;;;;;;;;;4996340;28;20486;-77
2023/03/27 05:56:41;;;;;;;2.83;1.30;;;;;;;;;;4996467;28;20506;-77
2023/03/27 05:59:08;;;;;;;2.60;1.35;;;;;;;;;;4996372;28;20525;-78
2023/03/27 06:01:35;;;;;;;2.42;1.13;;;;;;;;;;4996930;28;20082;-78
2023/03/27 06:04:03;;;;;;;2.05;1.27;;;;;;;;;;5000366;28;20042;-77
2023/03/27 06:06:31;;;;;;;2.88;1.33;;;;;;;;;;4997459;28;20138;-78
2023/03/27 06:08:58;;;;;;;3.45;1.27;;;;;;;;;;4995931;28;20409;-77
2023/03/27 06:11:25;;;;;;;2.72;1.35;;;;;;;;;;5000213;28;20405;-78
2023/03/27 06:13:51;;;;;;;4.10;1.42;;;;;;;;;;5001230;28;20055;-78
2023/03/27 06:16:19;;;;;;;2.63;1.40;;;;;;;;;;4999037;28;20053;-77
2023/03/27 06:18:46;;;;;;;3.42;1.30;;;;;;;;;;4996693;28;20046;-76
2023/03/27 06:21:14;;;;;;;2.92;1.25;;;;;;;;;;4992723;28;20104;-77
2023/03/27 06:23:41;;;;;;;3.03;1.40;;;;;;;;;;4980208;28;20047;-79
2023/03/27 06:26:08;;;;;;;2.83;1.40;;;;;;;;;;4980809;28;20067;-77
2023/03/27 06:28:35;;;;;;;3.55;1.70;;;;;;;;;;4980416;28;20078;-77
2023/03/27 06:31:02;;;;;;;4.10;1.80;;;;;;;;;;4999091;28;20097;-77
2023/03/27 06:33:29;;;;;;;3.67;1.60;;;;;;;;;;4997946;28;20145;-77
2023/03/27 06:35:58;;;;;;;3.78;1.30;;;;;;;;;;4998555;28;20050;-79
2023/03/27 06:38:28;;;;;;;2.50;1.10;;;;;;;;;;4996050;28;20504;-77
2023/03/27 06:40:55;;;;;;;3.95;1.30;;;;;;;;;;4999336;28;20532;-77
2023/03/27 06:43:23;;;;;;;2.38;1.10;;;;;;;;;;5000080;28;20053;-79
2023/03/27 06:45:50;;;;;;;2.25;1.10;;;;;;;;;;4998303;28;20141;-78
2023/03/27 06:48:18;;;;;;;2.17;1.05;;;;;;;;;;4998368;28;20217;-77
2023/03/27 06:50:46;;;;;;;2.67;1.25;;;;;;;;;;4996809;28;20129;-80
2023/03/27 06:53:15;;;;;;;1.77;1.00;;;;;;;;;;4997857;28;20125;-78
2023/03/27 06:55:44;;;;;;;2.05;1.17;;;;;;;;;;4999156;28;20134;-77
2023/03/27 06:58:12;;;;;;;2.55;1.10;;;;;;;;;;4997751;28;20552;-79
2023/03/27 07:00:40;;;;;;;2.47;1.20;;;;;;;;;;4997829;28;20053;-80
2023/03/27 07:03:08;;;;;;;4.30;1.33;;;;;;;;;;4996711;28;20042;-79
2023/03/27 07:05:37;;;;;;;2.20;1.00;;;;;;;;;;5017498;28;20053;-78
2023/03/27 07:08:06;;;;;;;4.47;1.40;;;;;;;;;;4991035;28;20054;-78
2023/03/27 07:10:33;;;;;;;2.80;1.20;;;;;;;;;;5013649;28;20078;-77
2023/03/27 07:13:01;;;;;;;3.78;1.75;;;;;;;;;;4997337;28;20069;-77
2023/03/27 07:15:29;;;;;;;3.15;1.60;;;;;;;;;;4979736;28;20528;-78
2023/03/27 07:17:56;;;;;;;2.97;1.45;;;;;;;;;;4979834;28;20070;-76
2023/03/27 07:20:26;;;;;;;3.88;1.77;;;;;;;;;;4979505;28;20102;-78
2023/03/27 07:22:53;;;;;;;3.90;1.55;;;;;;;;;;4986804;28;20070;-76
2023/03/27 07:25:21;;;;;;;3.28;1.48;;;;;;;;;;4994642;28;20097;-78
2023/03/27 07:27:47;;;;;;;2.72;1.40;;;;;;;;;;4998538;28;20080;-78
2023/03/27 07:30:16;;;;;;;2.92;1.23;;;;;;;;;;4998242;28;20058;-78
2023/03/27 07:32:44;;;;;;;4.15;1.42;;;;;;;;;;4991892;28;20500;-78
2023/03/27 07:35:11;;;;;;;3.25;1.23;;;;;;;;;;4995844;28;20488;-79
2023/03/27 07:37:38;;;;;;;2.90;1.20;;;;;;;;;;4994893;28;20042;-79
2023/03/27 07:40:07;;;;;;;2.63;1.42;;;;;;;;;;4995772;28;20125;-78
2023/03/27 07:42:34;;;;;;;3.63;1.40;;;;;;;;;;4995568;28;20070;-77
2023/03/27 07:45:01;;;;;;;4.55;1.50;;;;;;;;;;4996566;28;20214;-78
2023/03/27 07:47:30;;;;;;;3.47;1.70;;;;;;;;;;4997217;28;20074;-78
2023/03/27 07:49:56;;;;;;;3.47;1.73;;;;;;;;;;4995322;28;20589;-78
2023/03/27 07:52:23;;;;;;;4.65;1.60;;;;;;;;;;4990236;28;20745;-77
2023/03/27 07:54:50;;;;;;;3.78;1.80;;;;;;;;;;5007710;28;20038;-85
2023/03/27 07:57:17;;;;;;;4.20;1.80;;;;;;;;;;5009266;28;20088;-86
2023/03/27 07:59:44;;;;;;;6.07;2.40;;;;;;;;;;5009369;28;20045;-77
2023/03/27 08:02:11;;;;;;;4.60;2.20;;;;;;;;;;5003437;28;20057;-80
2023/03/27 08:04:39;;;;;;;4.55;2.25;;;;;;;;;;5000229;28;20137;-81
2023/03/27 08:07:05;;;;;;;7.88;3.00;;;;;;;;;;4992660;28;20117;-77
2023/03/27 08:09:32;;;;;;;6.63;3.47;;;;;;;;;;4995500;28;20482;-78
2023/03/27 08:11:59;;;;;;;6.47;3.17;;;;;;;;;;4995193;28;20073;-78
2023/03/27 08:14:26;;;;;;;7.25;3.10;;;;;;;;;;4993048;28;20128;-78
2023/03/27 08:16:52;;;;;;;7.53;3.75;;;;;;;;;;4993300;28;20050;-78
2023/03/27 08:19:20;;;;;;;9.43;4.07;;;;;;;;;;4992730;28;20052;-77
2023/03/27 08:21:48;;;;;;;8.57;3.65;;;;;;;;;;4992711;28;20046;-78
2023/03/27 08:24:15;;;;;;;8.13;4.07;;;;;;;;;;4997098;28;20525;-78
2023/03/27 08:26:42;;;;;;;11.85;4.90;;;;;;;;;;4995153;28;20082;-78
2023/03/27 08:29:09;;;;;;;8.70;4.45;;;;;;;;;;4991114;28;20046;-77
2023/03/27 08:31:36;;;;;;;8.15;4.18;;;;;;;;;;4990146;28;20109;-77
2023/03/27 08:34:02;;;;;;;9.30;4.38;;;;;;;;;;4991159;28;20125;-78
2023/03/27 08:36:30;;;;;;;8.90;3.97;;;;;;;;;;4991366;28;20193;-79
2023/03/27 08:39:01;;;;;;;7.20;3.92;;;;;;;;;;4992563;28;20078;-77
2023/03/27 08:41:30;;;;;;;;;;;;;;;;;;4995136;28;20074;-77
2023/03/27 08:44:00;;;;;;;6.40;3.13;;;;;;;;;;4993801;28;19922;-78
2023/03/27 08:46:30;;;;;;;9.68;3.50;;;;;;;;;;4994417;28;20078;-78
2023/03/27 08:49:01;;;;;;;6.63;3.85;;;;;;;;;;4988026;28;20078;-78
2023/03/27 08:51:33;;;;;;;7.05;3.53;;;;;;;;;;4992219;28;20069;-78
2023/03/27 08:54:07;;;;;;;7.03;3.60;;;;;;;;;;4991689;28;20086;-77
2023/03/27 08:56:36;;;;;;;9.73;4.90;;;;;;;;;;4997097;28;20058;-78
2023/03/27 08:59:03;;;;;;;8.95;4.45;;;;;;;;;;4992988;28;20054;-79
2023/03/27 09:01:35;;;;;;;10.07;4.93;;;;;;;;;;4991434;28;20130;-77
2023/03/27 09:04:11;;;;;;;11.25;4.80;;;;;;;;;;5005415;22;20034;-64
2023/03/27 09:06:47;;;;;;;11.63;5.35;;;;;;;;;;4994643;28;20047;-63
2023/03/27 09:09:30;;;;;;;16.50;7.18;;;;;;;;;;4992248;28;20078;-61
2023/03/27 09:12:03;;;;;;;14.82;6.43;;;;;;;;;;4974166;28;20054;-62
2023/03/27 09:14:34;;;;;;;15.00;6.75;;;;;;;;;;4974255;28;20062;-61
2023/03/27 09:17:06;;;;;;;13.10;5.97;;;;;;;;;;4975196;28;20043;-61
2023/03/27 09:19:43;;;;;;;17.25;7.13;;;;;;;;;;4974242;28;20503;-62
2023/03/27 09:22:15;;;;;;;14.23;7.72;;;;;;;;;;4979983;28;20503;-62
2023/03/27 09:24:48;;;;;;;12.73;6.43;;;;;;;;;;4987872;28;20522;-60
2023/03/27 09:27:21;;;;;;;19.23;6.97;;;;;;;;;;4979279;28;20368;-61
2023/03/27 09:29:56;;;;;;;12.95;6.55;;;;;;;;;;4980726;28;20169;-61
2023/03/27 09:32:23;;;;;;;13.35;5.95;;;;;;;;;;4979369;28;20065;-59
2023/03/27 09:34:50;;;;;;;13.73;7.15;;;;;;;;;;4984242;28;20058;-62
2023/03/27 09:37:17;;;;;;;10.32;5.53;;;;;;;;;;4989060;28;20050;-60
2023/03/27 09:39:50;;;;;;;20.35;6.55;;;;;;;;;;4992952;28;20046;-62
2023/03/27 09:42:23;;;;;;;10.68;6.13;;;;;;;;;;4986579;28;20093;-61
2023/03/27 09:44:55;;;;;;;17.48;5.85;;;;;;;;;;4973849;28;20057;-59
2023/03/27 09:47:26;;;;;;;12.50;5.70;;;;;;;;;;4980669;28;20046;-62
2023/03/27 09:49:57;;;;;;;11.38;5.45;;;;;;;;;;4973343;28;20082;-59
2023/03/27 09:52:35;;;;;;;12.27;6.35;;;;;;;;;;4980308;28;20042;-62
2023/03/27 09:55:23;;;;;;;13.43;5.47;;;;;;;;;;4981380;28;20043;-63
2023/03/27 09:57:57;;;;;;;13.68;5.63;;;;;;;;;;4980470;28;20057;-61
2023/03/27 10:00:30;;;;;;;12.85;5.57;;;;;;;;;;4980032;28;20337;-60
2023/03/27 10:03:04;;;;;;;9.20;5.68;;;;;;;;;;4973761;28;20128;-59
2023/03/27 10:05:31;;;;;;;12.70;5.78;;;;;;;;;;4992744;28;20401;-62
2023/03/27 10:07:59;;;;;;;10.60;5.75;;;;;;;;;;4985388;28;20389;-60
2023/03/27 10:10:31;;;;;;;12.63;5.65;;;;;;;;;;4979561;28;20057;-61
2023/03/27 10:13:00;;;;;;;9.63;5.32;;;;;;;;;;4977799;28;20050;-61
2023/03/27 10:15:35;;;;;;;11.20;5.63;;;;;;;;;;4985637;28;20054;-61
2023/03/27 10:18:06;;;;;;;14.30;5.30;;;;;;;;;;4985466;28;20056;-61
2023/03/27 10:20:33;;;;;;;11.85;4.53;;;;;;;;;;4985241;28;20062;-64
2023/03/27 10:23:03;;;;;;;10.80;4.75;;;;;;;;;;4974587;28;20114;-62
2023/03/27 10:25:33;;;;;;;10.73;4.93;;;;;;;;;;4972654;28;20057;-61
2023/03/27 10:28:18;;;;;;;10.80;5.03;;;;;;;;;;4980533;28;20452;-61
2023/03/27 10:30:45;;;;;;;9.68;4.75;;;;;;;;;;4989767;28;20540;-61
2023/03/27 10:33:12;;;;;;;10.45;4.97;;;;;;;;;;4991875;28;20061;-60
2023/03/27 10:35:43;;;;;;;11.18;5.05;;;;;;;;;;4975376;28;20121;-61
2023/03/27 10:38:13;;;;;;;10.00;4.53;;;;;;;;;;4979730;28;20105;-61
2023/03/27 10:40:47;;;;;;;8.02;4.15;;;;;;;;;;4985365;28;20050;-56
2023/03/27 10:43:18;;;;;;;8.40;4.35;;;;;;;;;;4979745;28;20125;-53
2023/03/27 10:45:49;;;;;;;10.05;4.95;;;;;;;;;;4985468;28;20110;-58
2023/03/27 10:48:27;;;;;;;7.85;4.00;;;;;;;;;;4972137;28;20522;-57
2023/03/27 10:50:58;;;;;;;7.53;4.00;;;;;;;;;;4972499;28;20097;-56
2023/03/27 10:53:36;;;;;;;9.88;4.80;;;;;;;;;;4978368;28;20055;-58
2023/03/27 10:56:14;;;;;;;8.45;4.15;;;;;;;;;;4986826;28;20468;-55
2023/03/27 10:58:47;;;;;;;9.60;4.13;;;;;;;;;;4971886;28;20086;-57
2023/03/27 11:01:19;;;;;;;7.88;3.92;;;;;;;;;;4972737;28;20102;-60
2023/03/27 11:03:52;;;;;;;12.10;4.57;;;;;;;;;;4972474;28;20057;-55
2023/03/27 11:06:23;;;;;;;10.05;4.45;;;;;;;;;;4972424;28;20058;-56
2023/03/27 11:09:04;;;;;;;10.00;4.38;;;;;;;;;;4979725;28;20126;-58
2023/03/27 11:11:36;;;;;;;10.07;5.10;;;;;;;;;;4984052;28;20051;-55
2023/03/27 11:14:07;;;;;;;7.63;4.07;;;;;;;;;;4976033;28;20417;-53
2023/03/27 11:16:39;;;;;;;10.40;3.92;;;;;;;;;;4981578;28;20681;-56
2023/03/27 11:19:25;;;;;;;8.18;4.13;;;;;;;;;;4984206;28;20096;-59
2023/03/27 11:21:56;;;;;;;9.30;4.50;;;;;;;;;;4972775;28;20050;-57
2023/03/27 11:24:30;;;;;;;9.43;4.25;;;;;;;;;;4972899;28;20105;-58
2023/03/27 11:27:05;;;;;;;9.15;4.38;;;;;;;;;;4980076;28;20105;-56
2023/03/27 11:29:37;;;;;;;7.85;3.75;;;;;;;;;;4985016;28;20050;-57
2023/03/27 11:32:13;;;;;;;9.50;4.18;;;;;;;;;;4978269;28;20082;-56
2023/03/27 11:34:46;;;;;;;8.90;4.13;;;;;;;;;;4978350;28;20067;-55
2023/03/27 11:37:20;;;;;;;8.40;3.90;;;;;;;;;;4972057;28;20061;-56
2023/03/27 11:39:51;;;;;;;6.40;2.85;;;;;;;;;;4977988;28;20133;-58
2023/03/27 11:42:24;;;;;;;8.10;3.78;;;;;;;;;;4977960;28;20066;-57
2023/03/27 11:44:51;;;;;;;6.50;2.88;;;;;;;;;;4978459;28;20053;-54
2023/03/27 11:47:38;;;;;;;6.45;3.38;;;;;;;;;;4985393;28;20062;-53
2023/03/27 11:50:21;;;;;;;6.28;2.60;;;;;;;;;;4983372;28;20050;-55
2023/03/27 11:53:01;;;;;;;8.10;2.75;;;;;;;;;;4977535;28;20708;-54
2023/03/27 11:55:33;;;;;;;5.65;2.35;;;;;;;;;;4977290;28;20410;-54
2023/03/27 11:58:19;;;;;;;7.55;2.80;;;;;;;;;;4971605;28;20058;-63
2023/03/27 12:00:53;;;;;;;6.05;2.72;;;;;;;;;;4980911;28;20046;-65
2023/03/27 12:03:35;;;;;;;7.47;2.83;;;;;;;;;;4990216;28;20467;-61
2023/03/27 12:06:14;;;;;;;5.90;2.55;;;;;;;;;;4981782;28;20484;-60
2023/03/27 12:09:10;;;;;;;6.57;2.83;;;;;;;;;;4971654;28;20073;-57
2023/03/27 12:11:41;;;;;;;5.93;2.65;;;;;;;;;;4977914;28;20082;-55
2023/03/27 12:14:22;;;;;;;6.35;2.30;;;;;;;;;;4975933;28;20054;-55
2023/03/27 12:17:01;;;;;;;6.47;2.42;;;;;;;;;;4978044;28;20185;-55
2023/03/27 12:20:04;;;;;;;6.70;2.13;;;;;;;;;;4977095;28;20535;-53
2023/03/27 12:22:43;;;;;;;3.55;1.90;;;;;;;;;;4980044;28;20050;-57
2023/03/27 12:25:30;;;;;;;4.55;1.90;;;;;;;;;;4976383;28;20238;-57
2023/03/27 12:28:09;;;;;;;6.57;2.72;;;;;;;;;;4977871;28;20520;-57
2023/03/27 12:30:48;;;;;;;7.35;2.80;;;;;;;;;;4972368;28;20499;-55
2023/03/27 12:33:47;;;;;;;7.28;2.58;;;;;;;;;;4978794;28;20049;-56
2023/03/27 12:36:18;;;;;;;5.82;2.90;;;;;;;;;;4977075;28;20051;-58
2023/03/27 12:38:45;;;;;;;5.22;2.33;;;;;;;;;;4984735;28;20436;-55
2023/03/27 12:41:20;;;;;;;6.75;2.45;;;;;;;;;;4975082;28;20412;-57
2023/03/27 12:43:53;;;;;;;5.53;2.45;;;;;;;;;;4981610;28;20149;-57
2023/03/27 12:46:32;;;;;;;6.20;2.55;;;;;;;;;;4976051;28;20059;-57
2023/03/27 12:49:04;;;;;;;5.78;2.28;;;;;;;;;;4986042;28;20074;-57
2023/03/27 12:51:42;;;;;;;7.10;2.25;;;;;;;;;;4974345;28;20137;-55
2023/03/27 12:54:23;;;;;;;5.47;2.75;;;;;;;;;;4985476;28;20047;-56
2023/03/27 12:56:57;;;;;;;6.18;2.63;;;;;;;;;;4981087;28;20047;-56
2023/03/27 12:59:27;;;;;;;6.43;2.22;;;;;;;;;;4980471;28;20042;-56
2023/03/27 13:02:33;;;;;;;5.97;2.35;;;;;;;;;;4986309;28;20105;-59
2023/03/27 13:05:26;;;;;;;5.85;2.47;;;;;;;;;;4973725;28;20700;-55
2023/03/27 13:08:05;;;;;;;5.75;1.77;;;;;;;;;;4976502;28;20047;-54
2023/03/27 13:10:45;;;;;;;5.55;1.40;;;;;;;;;;4979241;28;20525;-56
2023/03/27 13:13:39;;;;;;;4.88;2.20;;;;;;;;;;4986752;28;20061;-55
2023/03/27 13:16:23;;;;;;;4.10;1.25;;;;;;;;;;4980745;28;20063;-56
2023/03/27 13:19:04;;;;;;;5.60;1.88;;;;;;;;;;4975992;28;20051;-57
2023/03/27 13:21:42;;;;;;;4.22;2.17;;;;;;;;;;4980975;28;20468;-55
2023/03/27 13:24:21;;;;;;;4.35;1.35;;;;;;;;;;4981415;28;20550;-58
2023/03/27 13:27:00;;;;;;;5.07;1.95;;;;;;;;;;4974477;28;20050;-56
2023/03/27 13:29:32;;;;;;;5.60;1.33;;;;;;;;;;4974182;28;20058;-55
2023/03/27 13:32:04;;;;;;;5.68;1.95;;;;;;;;;;4973779;28;20047;-56
2023/03/27 13:34:37;;;;;;;7.53;1.90;;;;;;;;;;4975836;28;20047;-56
2023/03/27 13:37:41;;;;;;;3.70;1.40;;;;;;;;;;4987678;28;20047;-56
2023/03/27 13:40:33;;;;;;;4.35;1.05;;;;;;;;;;4979685;28;20377;-54
2023/03/27 13:43:24;;;;;;;4.18;1.23;;;;;;;;;;4981474;28;20054;-55
2023/03/27 13:45:52;;;;;;;3.10;1.05;;;;;;;;;;4978069;28;20061;-57
2023/03/27 13:49:03;;;;;;;5.28;1.60;;;;;;;;;;4972975;28;20435;-56
2023/03/27 13:51:54;;;;;;;4.30;1.65;;;;;;;;;;4983809;28;20137;-54
2023/03/27 13:54:58;;;;;;;6.55;1.30;;;;;;;;;;4986753;28;20452;-56
2023/03/27 13:57:43;;;;;;;4.32;1.30;;;;;;;;;;4973654;28;20444;-56
2023/03/27 14:00:26;;;;;;;2.92;1.20;;;;;;;;;;4980901;28;20112;-55
2023/03/27 14:03:18;;;;;;;3.00;0.98;;;;;;;;;;4980734;28;20055;-56
2023/03/27 14:06:20;;;;;;;2.78;1.20;;;;;;;;;;4979929;28;20042;-57
2023/03/27 14:08:58;;;;;;;4.93;1.20;;;;;;;;;;4929627;28;20665;-55
2023/03/27 14:11:41;;;;;;;2.88;1.10;;;;;;;;;;4980130;28;20050;-54
2023/03/27 14:14:26;;;;;;;2.90;0.90;;;;;;;;;;4980312;28;20351;-54
2023/03/27 14:17:29;;;;;;;2.55;0.80;;;;;;;;;;4987004;28;20066;-54
2023/03/27 14:20:13;;;;;;;3.80;1.30;;;;;;;;;;4973410;28;20125;-57
2023/03/27 14:22:47;;;;;;;2.45;0.85;;;;;;;;;;4980275;28;20401;-57
2023/03/27 14:25:18;;;;;;;5.43;1.25;;;;;;;;;;4985714;28;20050;-57
2023/03/27 14:27:53;;;;;;;6.80;1.30;;;;;;;;;;4977133;28;20378;-55
2023/03/27 14:30:25;;;;;;;3.97;1.00;;;;;;;;;;4992583;28;20543;-53
2023/03/27 14:32:54;;;;;;;4.88;1.30;;;;;;;;;;4982411;28;20475;-51
2023/03/27 14:35:34;;;;;;;4.00;1.08;;;;;;;;;;4977013;28;20077;-55
2023/03/27 14:38:06;;;;;;;3.05;1.10;;;;;;;;;;4976586;28;20562;-54
2023/03/27 14:40:35;;;;;;;2.70;1.10;;;;;;;;;;4985593;28;20050;-53
2023/03/27 14:43:05;;;;;;;2.65;0.88;;;;;;;;;;4983386;28;20102;-52
2023/03/27 14:45:38;;;;;;;1.65;1.17;;;;;;;;;;4980585;28;20082;-55
2023/03/27 14:48:07;;;;;;;2.20;1.00;;;;;;;;;;4982521;28;20054;-55
2023/03/27 14:50:37;;;;;;;3.70;1.50;;;;;;;;;;4971967;28;20046;-57
2023/03/27 14:53:08;;;;;;;2.97;1.00;;;;;;;;;;4982878;28;20054;-54
2023/03/27 14:55:38;;;;;;;2.00;0.80;;;;;;;;;;4979159;28;20079;-61
2023/03/27 14:58:11;;;;;;;1.90;0.90;;;;;;;;;;4975190;28;20056;-58
2023/03/27 15:00:40;;;;;;;2.80;0.82;;;;;;;;;;4981496;28;20141;-56
2023/03/27 15:03:13;;;;;;;3.75;0.90;;;;;;;;;;4981687;28;20051;-62
2023/03/27 15:05:55;;;;;;;5.57;1.30;;;;;;;;;;4975465;28;20078;-53
2023/03/27 15:08:24;;;;;;;3.63;0.82;;;;;;;;;;4986708;28;20050;-55
2023/03/27 15:10:53;;;;;;;5.03;0.90;;;;;;;;;;4986138;28;20057;-54
2023/03/27 15:13:23;;;;;;;2.78;0.90;;;;;;;;;;4981766;28;20412;-55